Hlavní strana
METAR-TAF:

METAR-TAF

Letiště :

Anderson, Indiana, Spojené státy americké

zeměpisná šířka: 40-07N, zeměpisná délka: 085-37W, výška: 280 m

Aktuální stav počasí

Zpráva byla vytvořena před 11 minutami, v 00:35 UTC
Jihovýchodní vítr 5 kt
Teplota 1°C
Vlhkost vzduchu 69%
Tlak 1026 hPa
Viditelnost: 16.1 km
Jasno

METAR: KAID 080035Z AUTO 14005KT 10SM CLR 01/M04 A3030 RMK AO2 T00051043

Čas: 19:46 (00:46 UTC)


TAF: chybějící

Stav a předpovědi počasí z více než 4 000 letišť (zprávy METAR a TAF).

Červené a žluté tečky na mapě představují dostupné meteorologické stanice.

Když kurzor umístíte na tečku, zobrazí se název stanice.

Pak kliknutím zobrazíte stav a předpověď počasí.

Chcete-li změnit mapu, kliknutím na zelené tlačítko se znaménkem +mapu přiblížíte, kliknutím na zelené tlačítko se znaménkem – mapu oddálíte a kliknutím na zelené šipky přejdete na sousední mapy.


METAR-TAF: